Georgia — WDG9270 — position and weather

sailwx.info

Track history (hours):
 
Tides and Currents Weather Stations Pressure Air Temp Water Temp Dewpoint Dewpoint Depression Visibility Wind Speed Wind Dir Waves Ship Positions

Georgia

Owner: savannah bar pilots, inc., savannah, GA. More information available from US FCC via Universal Licensing System and Coast Guard Vessel Documentation Center.

Last reported at 2018-Aug-21 04:01 UTC. Time now 2018-Aug-21 04:18 UTC.
Position N 32°02' W 080°54'.

Length 19 m; draft 1 m.

Type: Pilot. MMSI: 367586130.

Date/timePositionNaut miles runAvg speedWind from/ knotsBaromVisibWave heightAir tempDewpointWater temp
2018-Aug-21 04:01N 32°02' W 080°54'0 0.0
2018-Aug-21 04:00N 32°02' W 080°54'0 0.0
2018-Aug-21 03:30N 32°02' W 080°54'0 0.0
2018-Aug-21 03:03N 32°02' W 080°54'0 0.1
2018-Aug-21 02:59N 32°02' W 080°54'0 0.0
2018-Aug-21 02:30N 32°02' W 080°54'818.0
2018-Aug-21 02:03N 31°59' W 080°46'231.8
2018-Aug-21 02:00N 31°60' W 080°47'3 6.3
2018-Aug-21 01:29N 31°58' W 080°44'2 3.2
2018-Aug-21 00:50N 31°57' W 080°42'2 6.4
2018-Aug-21 00:30N 31°58' W 080°44'0 0.7
2018-Aug-21 00:02N 31°58' W 080°44'0 4.5
2018-Aug-20 23:57N 31°58' W 080°44'716.3
2018-Aug-20 23:30N 32°02' W 080°51'4 8.6
2018-Aug-20 23:03N 32°00' W 080°47'234.3
2018-Aug-20 23:00N 31°59' W 080°45'3 5.5
2018-Aug-20 22:30N 32°01' W 080°48'2 4.7
2018-Aug-20 22:03N 31°59' W 080°46'235.9
2018-Aug-20 22:00N 31°59' W 080°44'510.5
2018-Aug-20 21:30N 32°02' W 080°49'4 9.8
2018-Aug-20 21:03N 32°02' W 080°54'0 0.0
2018-Aug-20 21:00N 32°02' W 080°54'0 0.0
2018-Aug-20 20:30N 32°02' W 080°54'0 0.0
2018-Aug-20 20:03N 32°02' W 080°54'0 0.1
2018-Aug-20 20:00N 32°02' W 080°54'0 0.0
2018-Aug-20 19:30N 32°02' W 080°54'0 0.0
2018-Aug-20 19:03N 32°02' W 080°54'0 0.0
2018-Aug-20 19:00N 32°02' W 080°54'0 0.0
2018-Aug-20 18:30N 32°02' W 080°54'0 0.0
2018-Aug-20 18:02N 32°02' W 080°54'0 0.0
2018-Aug-20 18:00N 32°02' W 080°54'0 0.0
2018-Aug-20 17:30N 32°02' W 080°54'510.5
2018-Aug-20 17:03N 32°01' W 080°49'130.1
2018-Aug-20 17:00N 32°00' W 080°47'1 2.5
2018-Aug-20 16:30N 32°01' W 080°49'510.7
2018-Aug-20 16:03N 32°02' W 080°54'0 0.0
2018-Aug-20 16:00N 32°02' W 080°54'0 0.0
2018-Aug-20 15:30N 32°02' W 080°54'0 0.0
2018-Aug-20 15:03N 32°02' W 080°54'0 0.0
2018-Aug-20 15:00N 32°02' W 080°54'8 8.2
2018-Aug-20 14:03N 31°59' W 080°46'128.2
2018-Aug-20 14:00N 31°60' W 080°47'612.3
2018-Aug-20 13:29N 32°02' W 080°54'0 0.0
2018-Aug-20 13:03N 32°02' W 080°54'0 0.0
2018-Aug-20 12:57N 32°02' W 080°54'0 0.0
2018-Aug-20 12:30N 32°02' W 080°54'0 0.0
2018-Aug-20 12:03N 32°02' W 080°54'0 0.0
2018-Aug-20 12:00N 32°02' W 080°54'917.7
2018-Aug-20 11:30N 31°58' W 080°44'0 0.7
2018-Aug-20 11:02N 31°58' W 080°44'014.7
2018-Aug-20 11:00N 31°58' W 080°44'714.9
2018-Aug-20 10:30N 32°02' W 080°52'2 4.1
2018-Aug-20 10:03N 32°02' W 080°54'0 0.0
2018-Aug-20 10:00N 32°02' W 080°54'0 0.0
2018-Aug-20 09:30N 32°02' W 080°54'0 0.0
2018-Aug-20 09:03N 32°02' W 080°54'0 0.0
2018-Aug-20 09:00N 32°02' W 080°54'0 0.0
2018-Aug-20 08:30N 32°02' W 080°54'0 0.0
2018-Aug-20 08:03N 32°02' W 080°54'0 0.0
2018-Aug-20 08:00N 32°02' W 080°54'714.3
2018-Aug-20 07:30N 31°59' W 080°46'3 6.8
2018-Aug-20 07:03N 31°58' W 080°43'0 8.4
2018-Aug-20 07:00N 31°58' W 080°43'2 3.7
2018-Aug-20 06:30N 31°57' W 080°41'1021.9
2018-Aug-20 06:03N 32°02' W 080°51'010.3
2018-Aug-20 06:00N 32°02' W 080°51'2 4.7
2018-Aug-20 05:30N 32°02' W 080°54'0 0.0
2018-Aug-20 05:03N 32°02' W 080°54'0 0.0
2018-Aug-20 05:00N 32°02' W 080°54'0 0.0
2018-Aug-20 04:43N 32°02' W 080°54'0 0.0
2018-Aug-20 04:30N 32°02' W 080°54'912.3
2018-Aug-20 03:47N 31°58' W 080°45'517.7
2018-Aug-20 03:30N 32°01' W 080°49'714.9
2018-Aug-20 03:00N 31°57' W 080°41'815.4
2018-Aug-20 02:30N 32°01' W 080°49'4 8.4
2018-Aug-20 01:59N 32°02' W 080°54'0 0.0
2018-Aug-20 01:30N 32°02' W 080°54'815.4
2018-Aug-20 00:59N 31°59' W 080°45'714.0
2018-Aug-20 00:30N 32°02' W 080°52'1 2.4
2018-Aug-20 00:00N 32°02' W 080°54'815.2
2018-Aug-19 23:30N 31°59' W 080°46'714.9
2018-Aug-19 23:00N 32°02' W 080°54'1 1.0
2018-Aug-19 22:30N 32°02' W 080°54'916.9
2018-Aug-19 21:59N 31°60' W 080°44'1 3.0
2018-Aug-19 21:30N 31°59' W 080°46'815.0
2018-Aug-19 21:00N 32°02' W 080°54'0 0.0
2018-Aug-19 20:30N 32°02' W 080°54'0 0.0
2018-Aug-19 20:00N 32°02' W 080°54'0 0.0
2018-Aug-19 19:30N 32°02' W 080°54'0 0.0
2018-Aug-19 18:59N 32°02' W 080°54'0 0.0
2018-Aug-19 18:30N 32°02' W 080°54'0 0.0
2018-Aug-19 18:00N 32°02' W 080°54'1 1.7
2018-Aug-19 17:30N 32°02' W 080°53'611.9
2018-Aug-19 17:00N 31°60' W 080°47'510.4
2018-Aug-19 16:29N 32°02' W 080°52'1 2.9
2018-Aug-19 15:59N 32°02' W 080°54'0 0.0
2018-Aug-19 15:30N 32°02' W 080°54'813.7
2018-Aug-19 14:57N 31°59' W 080°46'613.0
2018-Aug-19 14:30N 32°02' W 080°52'2 4.3
2018-Aug-19 14:00N 32°02' W 080°54'0 0.0
2018-Aug-19 13:30N 32°02' W 080°54'0 0.0
2018-Aug-19 12:59N 32°02' W 080°54'0 0.1
2018-Aug-19 12:30N 32°02' W 080°54'1325.1
2018-Aug-19 11:59N 31°57' W 080°40'1327.3
2018-Aug-19 11:30N 32°02' W 080°54'0 0.0
2018-Aug-19 10:59N 32°02' W 080°54'0 0.0
2018-Aug-19 10:30N 32°02' W 080°54'0 0.0
2018-Aug-19 10:00N 32°02' W 080°54'0 0.0
2018-Aug-19 09:30N 32°02' W 080°54'612.3
2018-Aug-19 09:01N 32°00' W 080°47'0 0.1
2018-Aug-19 08:30N 32°00' W 080°47'612.0
2018-Aug-19 08:00N 32°02' W 080°54'0 0.0
2018-Aug-19 07:30N 32°02' W 080°54'918.3
2018-Aug-19 07:00N 31°58' W 080°44'3 4.1
2018-Aug-19 06:09N 31°56' W 080°41'1 2.1
2018-Aug-19 05:49N 31°57' W 080°41'3 9.7
2018-Aug-19 05:28N 31°59' W 080°45'919.0
2018-Aug-19 05:00N 32°02' W 080°54'0 0.0
2018-Aug-19 04:30N 32°02' W 080°54'0 0.0
2018-Aug-19 04:00N 32°02' W 080°54'1019.6
2018-Aug-19 03:30N 31°58' W 080°43'2 3.3
2018-Aug-19 03:00N 31°59' W 080°45'613.1
2018-Aug-19 02:30N 32°02' W 080°52'2 4.0
2018-Aug-19 02:00N 32°02' W 080°54'0 0.0
2018-Aug-19 01:30N 32°02' W 080°54'0 0.0
2018-Aug-19 01:00N 32°02' W 080°54'1321.1
2018-Aug-19 00:24N 31°58' W 080°40'616.2
2018-Aug-19 00:01N 31°60' W 080°47'612.5
2018-Aug-18 23:30N 32°02' W 080°54'0 0.0
2018-Aug-18 23:00N 32°02' W 080°54'0 0.0
2018-Aug-18 22:28N 32°02' W 080°54'0 0.0
2018-Aug-18 22:00N 32°02' W 080°54'0 0.0
2018-Aug-18 21:30N 32°02' W 080°54'0 0.0
2018-Aug-18 21:00N 32°02' W 080°54'916.3
2018-Aug-18 20:27N 31°59' W 080°44'1 2.0
2018-Aug-18 20:00N 31°59' W 080°45'1 2.1
2018-Aug-18 19:30N 31°58' W 080°46'1 1.7
2018-Aug-18 19:00N 31°58' W 080°46'0 0.3
2018-Aug-18 18:28N 31°58' W 080°46'2 3.6
2018-Aug-18 18:00N 31°59' W 080°44'1 2.5
2018-Aug-18 17:30N 31°59' W 080°45'4 7.7
2018-Aug-18 17:01N 32°01' W 080°49'2 4.8
2018-Aug-18 16:30N 31°60' W 080°47'713.9
2018-Aug-18 16:00N 32°02' W 080°54'1421.5
2018-Aug-18 15:22N 31°57' W 080°39'822.9
2018-Aug-18 15:01N 32°01' W 080°48'1 2.7
2018-Aug-18 14:30N 31°60' W 080°47'2 3.0
2018-Aug-18 14:00N 31°59' W 080°46'610.2
2018-Aug-18 13:27N 31°56' W 080°40'614.3
2018-Aug-18 13:00N 31°59' W 080°46'714.5
2018-Aug-18 12:30N 32°02' W 080°54'0 0.0
2018-Aug-18 12:00N 32°02' W 080°54'0 0.0
2018-Aug-18 11:30N 32°02' W 080°54'0 0.0
2018-Aug-18 11:00N 32°02' W 080°54'0 0.0
2018-Aug-18 10:30N 32°02' W 080°54'0 0.0
2018-Aug-18 10:00N 32°02' W 080°54'0 0.0
2018-Aug-18 09:30N 32°02' W 080°54'1020.2
2018-Aug-18 09:00N 31°58' W 080°43'816.4
2018-Aug-18 08:30N 32°02' W 080°52'510.7
2018-Aug-18 08:00N 31°59' W 080°46'714.6
2018-Aug-18 07:31N 32°02' W 080°54'0 0.1
2018-Aug-18 07:00N 32°02' W 080°54'0 0.0
2018-Aug-18 06:30N 32°02' W 080°54'0 0.0
2018-Aug-18 06:00N 32°02' W 080°54'1115.8
2018-Aug-18 05:19N 31°58' W 080°43'617.8
2018-Aug-18 05:00N 32°01' W 080°48'510.8
2018-Aug-18 04:30N 32°02' W 080°54'0 0.0
2018-Aug-18 04:00N 32°02' W 080°54'612.1
2018-Aug-18 03:30N 32°00' W 080°47'612.0
2018-Aug-18 03:01N 32°02' W 080°54'2 4.1
2018-Aug-18 02:31N 32°02' W 080°52'5 9.2
2018-Aug-18 02:00N 31°60' W 080°47'5 9.2
2018-Aug-18 01:31N 32°02' W 080°52'5 9.6
2018-Aug-18 01:00N 31°60' W 080°47'2 3.6
2018-Aug-18 00:29N 31°59' W 080°45'816.2
2018-Aug-18 00:00N 32°02' W 080°53'1 1.6
2018-Aug-17 23:30N 32°02' W 080°54'816.3
2018-Aug-17 23:00N 31°59' W 080°45'1 1.5
2018-Aug-17 22:29N 31°58' W 080°46'0 0.9
2018-Aug-17 22:00N 31°59' W 080°46'1 1.5
2018-Aug-17 21:30N 31°58' W 080°46'5 9.9
2018-Aug-17 21:00N 31°57' W 080°40'1325.4
2018-Aug-17 20:30N 32°02' W 080°54'1632.2
2018-Aug-17 20:00N 31°56' W 080°36'1224.4
2018-Aug-17 19:30N 32°02' W 080°49'4 8.6
2018-Aug-17 19:00N 32°02' W 080°54'0 0.0
2018-Aug-17 18:30N 32°02' W 080°54'0 0.0
2018-Aug-17 18:00N 32°02' W 080°54'0 0.0
2018-Aug-17 17:30N 32°02' W 080°54'0 0.0
2018-Aug-17 17:00N 32°02' W 080°54'0 0.0
2018-Aug-17 16:30N 32°02' W 080°54'0 0.0
2018-Aug-17 16:00N 32°02' W 080°54'0 0.0
2018-Aug-17 15:30N 32°02' W 080°54'0 0.0
2018-Aug-17 14:59N 32°02' W 080°54'0 0.0
2018-Aug-17 14:00N 32°02' W 080°54'0 0.0
2018-Aug-17 13:30N 32°02' W 080°54'4 7.9
2018-Aug-17 13:00N 32°02' W 080°50'811.8
2018-Aug-17 12:20N 31°57' W 080°42'1030.1
2018-Aug-17 12:00N 32°02' W 080°52'2 3.2
2018-Aug-17 11:30N 32°02' W 080°54'1121.6
2018-Aug-17 11:00N 31°58' W 080°42'510.5
2018-Aug-17 10:30N 32°01' W 080°48'2 4.9
2018-Aug-17 10:00N 31°59' W 080°46'3 5.1
2018-Aug-17 09:30N 31°58' W 080°43'1 2.3
2018-Aug-17 09:00N 31°58' W 080°44'1 3.0
2018-Aug-17 08:30N 31°58' W 080°46'2 4.7
2018-Aug-17 08:00N 31°58' W 080°43'2 4.2
2018-Aug-17 07:26N 31°59' W 080°45'3 7.0
2018-Aug-17 06:59N 31°58' W 080°42'2 5.0
2018-Aug-17 06:30N 31°59' W 080°45'917.5
2018-Aug-17 06:00N 32°02' W 080°54'0 0.0
2018-Aug-17 05:31N 32°02' W 080°54'1319.2
2018-Aug-17 04:50N 31°57' W 080°40'823.8
2018-Aug-17 04:30N 32°01' W 080°48'0 0.3
2018-Aug-17 04:00N 32°01' W 080°48'510.6
2018-Aug-17 03:31N 32°02' W 080°54'1018.7
2018-Aug-17 02:58N 31°58' W 080°43'0 0.2
2018-Aug-17 02:28N 31°58' W 080°43'920.2
2018-Aug-17 02:00N 32°02' W 080°53'1 1.9
2018-Aug-17 01:29N 32°02' W 080°54'1424.0
2018-Aug-17 00:54N 31°57' W 080°39'614.1
2018-Aug-17 00:30N 31°59' W 080°45'816.3
2018-Aug-16 23:59N 32°02' W 080°54'0 0.0
2018-Aug-16 23:26N 32°02' W 080°54'0 0.0
2018-Aug-16 23:00N 32°02' W 080°54'0 0.0
2018-Aug-16 22:30N 32°02' W 080°54'0 0.0
2018-Aug-16 22:00N 32°02' W 080°54'0 0.0
2018-Aug-16 21:30N 32°02' W 080°54'0 0.0
2018-Aug-16 21:00N 32°02' W 080°54'0 0.0
2018-Aug-16 20:30N 32°02' W 080°54'0 0.0
2018-Aug-16 20:00N 32°02' W 080°54'0 0.0
2018-Aug-16 19:30N 32°02' W 080°54'0 0.0
2018-Aug-16 19:00N 32°02' W 080°54'0 0.0
2018-Aug-16 18:30N 32°02' W 080°54'0 0.0
2018-Aug-16 18:00N 32°02' W 080°54'0 0.0
2018-Aug-16 17:30N 32°02' W 080°54'0 0.0
2018-Aug-16 17:00N 32°02' W 080°54'0 0.0
2018-Aug-16 16:30N 32°02' W 080°54'0 0.0
2018-Aug-16 16:00N 32°02' W 080°54'0 0.0
2018-Aug-16 15:30N 32°02' W 080°54'0 0.0
2018-Aug-16 15:00N 32°02' W 080°54'0 0.0
2018-Aug-16 14:30N 32°02' W 080°54'0 0.0
2018-Aug-16 14:00N 32°02' W 080°54'0 0.0
2018-Aug-16 13:30N 32°02' W 080°54'0 0.0
2018-Aug-16 13:00N 32°02' W 080°54'0 0.0
2018-Aug-16 12:30N 32°02' W 080°54'0 0.0
2018-Aug-16 12:00N 32°02' W 080°54'4 8.5
2018-Aug-16 11:31N 32°02' W 080°49'1018.7
2018-Aug-16 10:59N 31°57' W 080°39'817.6
2018-Aug-16 10:31N 32°01' W 080°48'510.4
2018-Aug-16 10:01N 32°02' W 080°54'0 0.0
2018-Aug-16 09:30N 32°02' W 080°54'0 0.0
2018-Aug-16 09:00N 32°02' W 080°54'0 0.0
2018-Aug-16 08:30N 32°02' W 080°54'917.8
2018-Aug-16 08:00N 31°59' W 080°45'713.4
2018-Aug-16 07:30N 32°02' W 080°51'612.4
2018-Aug-16 07:00N 31°59' W 080°45'1 1.6
2018-Aug-16 06:29N 31°58' W 080°44'610.6
2018-Aug-16 05:58N 31°56' W 080°38'1022.3
2018-Aug-16 05:31N 32°01' W 080°49'2 3.2
2018-Aug-16 05:00N 31°60' W 080°47'2 3.7
2018-Aug-16 04:29N 31°59' W 080°45'1 1.2
2018-Aug-16 04:00N 31°59' W 080°45'1 1.1
2018-Aug-16 03:30N 31°59' W 080°46'5 9.0
2018-Aug-16 02:58N 31°57' W 080°40'4 9.0
2018-Aug-16 02:29N 31°59' W 080°45'1 1.4
2018-Aug-16 02:00N 31°59' W 080°46'611.5
2018-Aug-16 01:30N 32°02' W 080°52'714.8
2018-Aug-16 01:00N 31°58' W 080°44'815.4
2018-Aug-16 00:30N 32°02' W 080°52'2 3.3
2018-Aug-16 00:00N 32°02' W 080°54'915.4
2018-Aug-15 23:27N 31°59' W 080°45'613.4
2018-Aug-15 23:00N 32°02' W 080°50'3 6.3
2018-Aug-15 22:30N 32°02' W 080°54'0 0.0
2018-Aug-15 22:00N 32°02' W 080°54'0 0.0
2018-Aug-15 21:30N 32°02' W 080°54'0 0.0
2018-Aug-15 21:00N 32°02' W 080°54'0 0.0
2018-Aug-15 20:30N 32°02' W 080°54'0 0.0
2018-Aug-15 20:00N 32°02' W 080°54'0 0.0
2018-Aug-15 19:30N 32°02' W 080°54'0 0.0
2018-Aug-15 19:00N 32°02' W 080°54'0 0.0
2018-Aug-15 18:30N 32°02' W 080°54'0 0.0
2018-Aug-15 18:00N 32°02' W 080°54'1020.3
2018-Aug-15 17:30N 31°58' W 080°43'917.4
2018-Aug-15 17:00N 32°02' W 080°52'2 4.9
2018-Aug-15 16:30N 32°02' W 080°49'713.9
2018-Aug-15 16:00N 31°58' W 080°43'4 7.4
2018-Aug-15 15:30N 31°59' W 080°46'714.1
2018-Aug-15 15:00N 32°02' W 080°54'918.7
2018-Aug-15 14:30N 31°59' W 080°44'1 1.1
2018-Aug-15 14:00N 31°58' W 080°44'1020.1
2018-Aug-15 13:30N 32°02' W 080°54'612.5
2018-Aug-15 13:00N 31°60' W 080°47'710.8
2018-Aug-15 12:22N 31°57' W 080°40'822.8
2018-Aug-15 12:00N 32°01' W 080°48'510.2
2018-Aug-15 11:30N 32°02' W 080°54'0 0.0
2018-Aug-15 11:00N 32°02' W 080°54'0 0.0
2018-Aug-15 10:31N 32°02' W 080°54'0 0.0
2018-Aug-15 10:00N 32°02' W 080°54'0 0.0
2018-Aug-15 09:30N 32°02' W 080°54'0 0.0
2018-Aug-15 09:00N 32°02' W 080°54'0 0.0
2018-Aug-15 08:30N 32°02' W 080°54'0 0.0
2018-Aug-15 08:00N 32°02' W 080°54'0 0.0
2018-Aug-15 07:31N 32°02' W 080°54'1013.6
2018-Aug-15 06:48N 31°58' W 080°44'622.4
2018-Aug-15 06:30N 32°02' W 080°50'710.1
2018-Aug-15 05:47N 31°58' W 080°43'622.0
2018-Aug-15 05:31N 32°01' W 080°49'5 9.4
2018-Aug-15 05:00N 32°02' W 080°54'0 0.0
2018-Aug-15 04:30N 32°02' W 080°54'713.2
2018-Aug-15 04:00N 31°60' W 080°47'2 3.1
2018-Aug-15 03:29N 31°59' W 080°45'510.0
2018-Aug-15 03:00N 32°02' W 080°50'4 8.7
2018-Aug-15 02:30N 31°59' W 080°46'2 3.9
2018-Aug-15 02:00N 32°00' W 080°48'2 4.8
2018-Aug-15 01:30N 32°02' W 080°49'2 4.8
2018-Aug-15 01:00N 32°00' W 080°47'612.0
2018-Aug-15 00:31N 32°02' W 080°54'0 0.1
2018-Aug-15 00:00N 32°02' W 080°54'0 0.0
2018-Aug-14 23:30N 32°02' W 080°54'0 0.0
2018-Aug-14 23:00N 32°02' W 080°54'0 0.0
2018-Aug-14 22:30N 32°02' W 080°54'0 0.0
2018-Aug-14 22:00N 32°02' W 080°54'0 0.0
2018-Aug-14 21:31N 32°02' W 080°54'0 0.0
2018-Aug-14 21:00N 32°02' W 080°54'0 0.0
2018-Aug-14 20:30N 32°02' W 080°54'0 0.0
2018-Aug-14 20:00N 32°02' W 080°54'0 0.0
2018-Aug-14 19:30N 32°02' W 080°54'0 0.0
2018-Aug-14 19:00N 32°02' W 080°54'0 0.0
2018-Aug-14 18:28N 32°02' W 080°54'0 0.0
2018-Aug-14 18:00N 32°02' W 080°54'0 0.0
2018-Aug-14 17:30N 32°02' W 080°54'0 0.0
2018-Aug-14 17:00N 32°02' W 080°54'0 0.0
2018-Aug-14 16:30N 32°02' W 080°54'0 0.0
2018-Aug-14 16:00N 32°02' W 080°54'0 0.0
2018-Aug-14 15:30N 32°02' W 080°54'0 0.0
2018-Aug-14 15:00N 32°02' W 080°54'0 0.0
2018-Aug-14 14:30N 32°02' W 080°54'0 0.0
2018-Aug-14 14:00N 32°02' W 080°54'0 0.0
2018-Aug-14 13:30N 32°02' W 080°54'0 0.0
2018-Aug-14 13:00N 32°02' W 080°54'0 0.0
2018-Aug-14 12:29N 32°02' W 080°54'0 0.0
2018-Aug-14 11:59N 32°02' W 080°54'0 0.0
2018-Aug-14 11:30N 32°02' W 080°54'0 0.0
2018-Aug-14 11:00N 32°02' W 080°54'0 0.0
2018-Aug-14 10:30N 32°02' W 080°54'0 0.0
2018-Aug-14 10:00N 32°02' W 080°54'0 0.0
2018-Aug-14 09:29N 32°02' W 080°54'0 0.0
2018-Aug-14 09:00N 32°02' W 080°54'0 0.0
2018-Aug-14 08:30N 32°02' W 080°54'0 0.0
2018-Aug-14 07:59N 32°02' W 080°54'0 0.0
2018-Aug-14 07:28N 32°02' W 080°54'0 0.0
2018-Aug-14 07:00N 32°02' W 080°54'0 0.0
2018-Aug-14 06:30N 32°02' W 080°54'0 0.0
2018-Aug-14 05:59N 32°02' W 080°54'0 0.0
2018-Aug-14 05:30N 32°02' W 080°54'0 0.0
2018-Aug-14 05:00N 32°02' W 080°54'0 0.0
2018-Aug-14 04:30N 32°02' W 080°54'0 0.0
2018-Aug-14 04:00N 32°02' W 080°54'0 0.0
2018-Aug-14 03:29N 32°02' W 080°54'0 0.0
2018-Aug-14 03:00N 32°02' W 080°54'0 0.0
2018-Aug-14 02:30N 32°02' W 080°54'0 0.0
2018-Aug-14 02:00N 32°02' W 080°54'0 0.0
2018-Aug-14 01:30N 32°02' W 080°54'0 0.0
2018-Aug-14 01:00N 32°02' W 080°54'0 0.0
2018-Aug-14 00:30N 32°02' W 080°54'0 0.0
2018-Aug-14 00:00N 32°02' W 080°54'0 0.0
2018-Aug-13 23:30N 32°02' W 080°54'0 0.0
2018-Aug-13 23:00N 32°02' W 080°54'0 0.0
2018-Aug-13 22:30N 32°02' W 080°54'0 0.0
2018-Aug-13 22:00N 32°02' W 080°54'0 0.0
2018-Aug-13 21:30N 32°02' W 080°54'0 0.0
2018-Aug-13 21:00N 32°02' W 080°54'0 0.0
2018-Aug-13 20:30N 32°02' W 080°54'0 0.0
2018-Aug-13 20:00N 32°02' W 080°54'0 0.0
2018-Aug-13 19:30N 32°02' W 080°54'0 0.0
2018-Aug-13 19:00N 32°02' W 080°54'0 0.0
2018-Aug-13 18:30N 32°02' W 080°54'0 0.0
2018-Aug-13 18:00N 32°02' W 080°54'0 0.0
2018-Aug-13 17:28N 32°02' W 080°54'0 0.0
2018-Aug-13 16:59N 32°02' W 080°54'0 0.0
2018-Aug-13 16:30N 32°02' W 080°54'0 0.0
2018-Aug-13 16:00N 32°02' W 080°54'0 0.0
2018-Aug-13 15:30N 32°02' W 080°54'0 0.0
2018-Aug-13 15:00N 32°02' W 080°54'0 0.0
2018-Aug-13 14:29N 32°02' W 080°54'0 0.0
2018-Aug-13 14:00N 32°02' W 080°54'0 0.0
2018-Aug-13 13:30N 32°02' W 080°54'0 0.0
2018-Aug-13 13:00N 32°02' W 080°54'0 0.0
2018-Aug-13 12:30N 32°02' W 080°54'0 0.0
2018-Aug-13 12:00N 32°02' W 080°54'0 0.0
2018-Aug-13 11:30N 32°02' W 080°54'0 0.0
2018-Aug-13 11:00N 32°02' W 080°54'0 0.0
2018-Aug-13 10:30N 32°02' W 080°54'0 0.0
2018-Aug-13 10:00N 32°02' W 080°54'0 0.0
2018-Aug-13 09:30N 32°02' W 080°54'510.2
2018-Aug-13 09:00N 32°01' W 080°48'5 9.7
2018-Aug-13 08:30N 31°58' W 080°44'611.6
2018-Aug-13 08:00N 32°02' W 080°49'4 7.5
2018-Aug-13 07:30N 31°59' W 080°46'1 2.6
2018-Aug-13 07:00N 31°60' W 080°47'1 2.3
2018-Aug-13 06:29N 31°59' W 080°46'612.0
2018-Aug-13 06:00N 32°02' W 080°52'3 5.5
2018-Aug-13 05:30N 32°01' W 080°49'4 5.8
2018-Aug-13 04:47N 31°59' W 080°45'724.0
2018-Aug-13 04:30N 32°02' W 080°52'1018.0
2018-Aug-13 03:58N 31°57' W 080°42'1 1.2
2018-Aug-13 03:30N 31°58' W 080°43'713.6
2018-Aug-13 03:00N 32°02' W 080°49'5 9.2
2018-Aug-13 02:30N 32°02' W 080°54'0 0.0
2018-Aug-13 02:00N 32°02' W 080°54'4 7.3
2018-Aug-13 01:30N 32°02' W 080°50'5 9.3
2018-Aug-13 01:00N 31°59' W 080°46'2 2.4
2018-Aug-13 00:19N 31°58' W 080°44'721.3
2018-Aug-13 00:00N 32°02' W 080°50'3 6.8
2018-Aug-12 23:30N 32°02' W 080°54'0 0.0
2018-Aug-12 23:00N 32°02' W 080°54'0 0.0
2018-Aug-12 22:30N 32°02' W 080°54'0 0.0
2018-Aug-12 22:00N 32°02' W 080°54'0 0.0
2018-Aug-12 21:30N 32°02' W 080°54'0 0.0
2018-Aug-12 21:00N 32°02' W 080°54'0 0.0
2018-Aug-12 20:30N 32°02' W 080°54'1 2.3
2018-Aug-12 20:00N 32°02' W 080°53'1019.1
2018-Aug-12 19:30N 31°58' W 080°43'612.6
2018-Aug-12 19:00N 32°01' W 080°49'5 9.4
2018-Aug-12 18:30N 32°02' W 080°54'0 0.0
2018-Aug-12 18:00N 32°02' W 080°54'0 0.0
2018-Aug-12 17:30N 32°02' W 080°54'0 0.0
2018-Aug-12 17:00N 32°02' W 080°54'0 0.0
2018-Aug-12 16:30N 32°02' W 080°54'0 0.0
2018-Aug-12 16:00N 32°02' W 080°54'0 0.0
2018-Aug-12 15:30N 32°02' W 080°54'0 0.0
2018-Aug-12 15:00N 32°02' W 080°54'0 0.0
2018-Aug-12 14:30N 32°02' W 080°54'0 0.0
2018-Aug-12 14:00N 32°02' W 080°54'0 0.0
2018-Aug-12 13:30N 32°02' W 080°54'4 7.5
2018-Aug-12 13:00N 32°02' W 080°50'816.5
2018-Aug-12 12:30N 31°57' W 080°41'1122.2
2018-Aug-12 12:00N 32°02' W 080°53'1 2.0
2018-Aug-12 11:30N 32°02' W 080°54'0 0.0
2018-Aug-12 11:00N 32°02' W 080°54'0 0.0
2018-Aug-12 10:29N 32°02' W 080°54'715.2
2018-Aug-12 10:00N 31°59' W 080°46'610.9
2018-Aug-12 09:29N 31°57' W 080°40'2 4.4
2018-Aug-12 09:00N 31°57' W 080°43'510.6
2018-Aug-12 08:30N 32°00' W 080°48'611.6
2018-Aug-12 08:00N 32°02' W 080°54'3 6.3
2018-Aug-12 07:31N 32°02' W 080°50'510.8
2018-Aug-12 07:00N 31°59' W 080°46'1 1.4
2018-Aug-12 06:30N 31°59' W 080°46'5 8.8
2018-Aug-12 05:56N 31°57' W 080°41'818.2
2018-Aug-12 05:30N 32°01' W 080°49'5 9.8
2018-Aug-12 05:01N 32°02' W 080°54'0 0.0
2018-Aug-12 04:30N 32°02' W 080°54'0 0.0
2018-Aug-12 04:00N 32°02' W 080°54'1114.6
2018-Aug-12 03:14N 31°58' W 080°42'520.9
2018-Aug-12 03:00N 31°60' W 080°47'611.8
2018-Aug-12 02:30N 32°02' W 080°54'611.3
2018-Aug-12 02:00N 32°00' W 080°47'612.3
2018-Aug-12 01:30N 32°02' W 080°54'3 5.3
2018-Aug-12 01:00N 32°02' W 080°51'4 7.9
2018-Aug-12 00:30N 31°60' W 080°47'510.2
2018-Aug-12 00:00N 32°02' W 080°53'1 2.6
2018-Aug-11 23:30N 32°02' W 080°54'0 0.0
2018-Aug-11 23:00N 32°02' W 080°54'0 0.0
2018-Aug-11 22:30N 32°02' W 080°54'0 0.0
2018-Aug-11 22:00N 32°02' W 080°54'0 0.0
2018-Aug-11 21:29N 32°02' W 080°54'0 0.0
2018-Aug-11 21:00N 32°02' W 080°54'0 0.0
2018-Aug-11 20:30N 32°02' W 080°54'0 0.0
2018-Aug-11 20:00N 32°02' W 080°54'1020.2
2018-Aug-11 19:30N 31°58' W 080°43'4 8.3
2018-Aug-11 19:00N 32°00' W 080°48'2 3.1
2018-Aug-11 18:30N 31°59' W 080°46'1 2.1
2018-Aug-11 18:00N 31°59' W 080°45'1 1.1
2018-Aug-11 17:24N 31°59' W 080°46'614.3
2018-Aug-11 17:01N 32°02' W 080°52'2 4.3
2018-Aug-11 16:30N 32°02' W 080°54'0 0.0
2018-Aug-11 16:00N 32°02' W 080°54'4 8.1
2018-Aug-11 15:30N 32°02' W 080°49'611.1
2018-Aug-11 15:00N 31°58' W 080°44'3 5.0
2018-Aug-11 14:30N 31°60' W 080°47'612.7
2018-Aug-11 14:00N 32°02' W 080°54'0 0.0
2018-Aug-11 13:30N 32°02' W 080°54'0 0.0
2018-Aug-11 13:00N 32°02' W 080°54'0 0.0
2018-Aug-11 12:30N 32°02' W 080°54'0 0.0
2018-Aug-11 12:00N 32°02' W 080°54'0 0.0
2018-Aug-11 11:30N 32°02' W 080°54'1423.0
2018-Aug-11 10:55N 31°56' W 080°40'4 9.5
2018-Aug-11 10:30N 31°58' W 080°44'1019.2
2018-Aug-11 10:00N 32°02' W 080°54'0 0.0
2018-Aug-11 09:30N 32°02' W 080°54'0 0.0
2018-Aug-11 09:00N 32°02' W 080°54'0 0.0
2018-Aug-11 08:30N 32°02' W 080°54'1222.7
2018-Aug-11 07:58N 31°57' W 080°41'1 2.6
2018-Aug-11 07:28N 31°58' W 080°42'1 2.7
2018-Aug-11 07:00N 31°58' W 080°43'1020.2
2018-Aug-11 06:30N 32°02' W 080°54'1218.1
2018-Aug-11 05:51N 31°57' W 080°42'823.8
2018-Aug-11 05:30N 32°02' W 080°50'612.8
2018-Aug-11 05:00N 31°59' W 080°43'3 5.2
2018-Aug-11 04:30N 31°59' W 080°46'  
Track history (hours):
 
Tides and Currents Weather Stations Pressure Air Temp Water Temp Dewpoint Dewpoint Depression Visibility Wind Speed Wind Dir Waves Ship Positions

Georgia

Owner: savannah bar pilots, inc., savannah, GA. More information available from US FCC via Universal Licensing System and Coast Guard Vessel Documentation Center.

Last reported at 2018-Aug-21 04:01 UTC. Time now 2018-Aug-21 04:18 UTC.
Position N 32°02' W 080°54'.

Length 19 m; draft 1 m.

Type: Pilot. MMSI: 367586130.

Date/timePositionNaut miles runAvg speedWind from/ knotsBaromVisibWave heightAir tempDewpointWater temp
2018-Aug-21 04:01N 32°02' W 080°54'0 0.0
2018-Aug-21 04:00N 32°02' W 080°54'0 0.0
2018-Aug-21 03:30N 32°02' W 080°54'0 0.0
2018-Aug-21 03:03N 32°02' W 080°54'0 0.1
2018-Aug-21 02:59N 32°02' W 080°54'0 0.0
2018-Aug-21 02:30N 32°02' W 080°54'818.0
2018-Aug-21 02:03N 31°59' W 080°46'231.8
2018-Aug-21 02:00N 31°60' W 080°47'3 6.3
2018-Aug-21 01:29N 31°58' W 080°44'2 3.2
2018-Aug-21 00:50N 31°57' W 080°42'2 6.4
2018-Aug-21 00:30N 31°58' W 080°44'0 0.7
2018-Aug-21 00:02N 31°58' W 080°44'0 4.5
2018-Aug-20 23:57N 31°58' W 080°44'716.3
2018-Aug-20 23:30N 32°02' W 080°51'4 8.6
2018-Aug-20 23:03N 32°00' W 080°47'234.3
2018-Aug-20 23:00N 31°59' W 080°45'3 5.5
2018-Aug-20 22:30N 32°01' W 080°48'2 4.7
2018-Aug-20 22:03N 31°59' W 080°46'235.9
2018-Aug-20 22:00N 31°59' W 080°44'510.5
2018-Aug-20 21:30N 32°02' W 080°49'4 9.8
2018-Aug-20 21:03N 32°02' W 080°54'0 0.0
2018-Aug-20 21:00N 32°02' W 080°54'0 0.0
2018-Aug-20 20:30N 32°02' W 080°54'0 0.0
2018-Aug-20 20:03N 32°02' W 080°54'0 0.1
2018-Aug-20 20:00N 32°02' W 080°54'0 0.0
2018-Aug-20 19:30N 32°02' W 080°54'0 0.0
2018-Aug-20 19:03N 32°02' W 080°54'0 0.0
2018-Aug-20 19:00N 32°02' W 080°54'0 0.0
2018-Aug-20 18:30N 32°02' W 080°54'0 0.0
2018-Aug-20 18:02N 32°02' W 080°54'0 0.0
2018-Aug-20 18:00N 32°02' W 080°54'0 0.0
2018-Aug-20 17:30N 32°02' W 080°54'510.5
2018-Aug-20 17:03N 32°01' W 080°49'130.1
2018-Aug-20 17:00N 32°00' W 080°47'1 2.5
2018-Aug-20 16:30N 32°01' W 080°49'510.7
2018-Aug-20 16:03N 32°02' W 080°54'0 0.0
2018-Aug-20 16:00N 32°02' W 080°54'0 0.0
2018-Aug-20 15:30N 32°02' W 080°54'0 0.0
2018-Aug-20 15:03N 32°02' W 080°54'0 0.0
2018-Aug-20 15:00N 32°02' W 080°54'8 8.2
2018-Aug-20 14:03N 31°59' W 080°46'128.2
2018-Aug-20 14:00N 31°60' W 080°47'612.3
2018-Aug-20 13:29N 32°02' W 080°54'0 0.0
2018-Aug-20 13:03N 32°02' W 080°54'0 0.0
2018-Aug-20 12:57N 32°02' W 080°54'0 0.0
2018-Aug-20 12:30N 32°02' W 080°54'0 0.0
2018-Aug-20 12:03N 32°02' W 080°54'0 0.0
2018-Aug-20 12:00N 32°02' W 080°54'917.7
2018-Aug-20 11:30N 31°58' W 080°44'0 0.7
2018-Aug-20 11:02N 31°58' W 080°44'014.7
2018-Aug-20 11:00N 31°58' W 080°44'714.9
2018-Aug-20 10:30N 32°02' W 080°52'2 4.1
2018-Aug-20 10:03N 32°02' W 080°54'0 0.0
2018-Aug-20 10:00N 32°02' W 080°54'0 0.0
2018-Aug-20 09:30N 32°02' W 080°54'0 0.0
2018-Aug-20 09:03N 32°02' W 080°54'0 0.0
2018-Aug-20 09:00N 32°02' W 080°54'0 0.0
2018-Aug-20 08:30N 32°02' W 080°54'0 0.0
2018-Aug-20 08:03N 32°02' W 080°54'0 0.0
2018-Aug-20 08:00N 32°02' W 080°54'714.3
2018-Aug-20 07:30N 31°59' W 080°46'3 6.8
2018-Aug-20 07:03N 31°58' W 080°43'0 8.4
2018-Aug-20 07:00N 31°58' W 080°43'2 3.7
2018-Aug-20 06:30N 31°57' W 080°41'1021.9
2018-Aug-20 06:03N 32°02' W 080°51'010.3
2018-Aug-20 06:00N 32°02' W 080°51'2 4.7
2018-Aug-20 05:30N 32°02' W 080°54'0 0.0
2018-Aug-20 05:03N 32°02' W 080°54'0 0.0
2018-Aug-20 05:00N 32°02' W 080°54'0 0.0
2018-Aug-20 04:43N 32°02' W 080°54'0 0.0
2018-Aug-20 04:30N 32°02' W 080°54'912.3
2018-Aug-20 03:47N 31°58' W 080°45'517.7
2018-Aug-20 03:30N 32°01' W 080°49'714.9
2018-Aug-20 03:00N 31°57' W 080°41'815.4
2018-Aug-20 02:30N 32°01' W 080°49'4 8.4
2018-Aug-20 01:59N 32°02' W 080°54'0 0.0
2018-Aug-20 01:30N 32°02' W 080°54'815.4
2018-Aug-20 00:59N 31°59' W 080°45'714.0
2018-Aug-20 00:30N 32°02' W 080°52'1 2.4
2018-Aug-20 00:00N 32°02' W 080°54'815.2
2018-Aug-19 23:30N 31°59' W 080°46'714.9
2018-Aug-19 23:00N 32°02' W 080°54'1 1.0
2018-Aug-19 22:30N 32°02' W 080°54'916.9
2018-Aug-19 21:59N 31°60' W 080°44'1 3.0
2018-Aug-19 21:30N 31°59' W 080°46'815.0
2018-Aug-19 21:00N 32°02' W 080°54'0 0.0
2018-Aug-19 20:30N 32°02' W 080°54'0 0.0
2018-Aug-19 20:00N 32°02' W 080°54'0 0.0
2018-Aug-19 19:30N 32°02' W 080°54'0 0.0
2018-Aug-19 18:59N 32°02' W 080°54'0 0.0
2018-Aug-19 18:30N 32°02' W 080°54'0 0.0
2018-Aug-19 18:00N 32°02' W 080°54'1 1.7
2018-Aug-19 17:30N 32°02' W 080°53'611.9
2018-Aug-19 17:00N 31°60' W 080°47'510.4
2018-Aug-19 16:29N 32°02' W 080°52'1 2.9
2018-Aug-19 15:59N 32°02' W 080°54'0 0.0
2018-Aug-19 15:30N 32°02' W 080°54'813.7
2018-Aug-19 14:57N 31°59' W 080°46'613.0
2018-Aug-19 14:30N 32°02' W 080°52'2 4.3
2018-Aug-19 14:00N 32°02' W 080°54'0 0.0
2018-Aug-19 13:30N 32°02' W 080°54'0 0.0
2018-Aug-19 12:59N 32°02' W 080°54'0 0.1
2018-Aug-19 12:30N 32°02' W 080°54'1325.1
2018-Aug-19 11:59N 31°57' W 080°40'1327.3
2018-Aug-19 11:30N 32°02' W 080°54'0 0.0
2018-Aug-19 10:59N 32°02' W 080°54'0 0.0
2018-Aug-19 10:30N 32°02' W 080°54'0 0.0
2018-Aug-19 10:00N 32°02' W 080°54'0 0.0
2018-Aug-19 09:30N 32°02' W 080°54'612.3
2018-Aug-19 09:01N 32°00' W 080°47'0 0.1
2018-Aug-19 08:30N 32°00' W 080°47'612.0
2018-Aug-19 08:00N 32°02' W 080°54'0 0.0
2018-Aug-19 07:30N 32°02' W 080°54'918.3
2018-Aug-19 07:00N 31°58' W 080°44'3 4.1
2018-Aug-19 06:09N 31°56' W 080°41'1 2.1
2018-Aug-19 05:49N 31°57' W 080°41'3 9.7
2018-Aug-19 05:28N 31°59' W 080°45'919.0
2018-Aug-19 05:00N 32°02' W 080°54'0 0.0
2018-Aug-19 04:30N 32°02' W 080°54'0 0.0
2018-Aug-19 04:00N 32°02' W 080°54'1019.6
2018-Aug-19 03:30N 31°58' W 080°43'2 3.3
2018-Aug-19 03:00N 31°59' W 080°45'613.1
2018-Aug-19 02:30N 32°02' W 080°52'2 4.0
2018-Aug-19 02:00N 32°02' W 080°54'0 0.0
2018-Aug-19 01:30N 32°02' W 080°54'0 0.0
2018-Aug-19 01:00N 32°02' W 080°54'1321.1
2018-Aug-19 00:24N 31°58' W 080°40'616.2
2018-Aug-19 00:01N 31°60' W 080°47'612.5
2018-Aug-18 23:30N 32°02' W 080°54'0 0.0
2018-Aug-18 23:00N 32°02' W 080°54'0 0.0
2018-Aug-18 22:28N 32°02' W 080°54'0 0.0
2018-Aug-18 22:00N 32°02' W 080°54'0 0.0
2018-Aug-18 21:30N 32°02' W 080°54'0 0.0
2018-Aug-18 21:00N 32°02' W 080°54'916.3
2018-Aug-18 20:27N 31°59' W 080°44'1 2.0
2018-Aug-18 20:00N 31°59' W 080°45'1 2.1
2018-Aug-18 19:30N 31°58' W 080°46'1 1.7
2018-Aug-18 19:00N 31°58' W 080°46'0 0.3
2018-Aug-18 18:28N 31°58' W 080°46'2 3.6
2018-Aug-18 18:00N 31°59' W 080°44'1 2.5
2018-Aug-18 17:30N 31°59' W 080°45'4 7.7
2018-Aug-18 17:01N 32°01' W 080°49'2 4.8
2018-Aug-18 16:30N 31°60' W 080°47'713.9
2018-Aug-18 16:00N 32°02' W 080°54'1421.5
2018-Aug-18 15:22N 31°57' W 080°39'822.9
2018-Aug-18 15:01N 32°01' W 080°48'1 2.7
2018-Aug-18 14:30N 31°60' W 080°47'2 3.0
2018-Aug-18 14:00N 31°59' W 080°46'610.2
2018-Aug-18 13:27N 31°56' W 080°40'614.3
2018-Aug-18 13:00N 31°59' W 080°46'714.5
2018-Aug-18 12:30N 32°02' W 080°54'0 0.0
2018-Aug-18 12:00N 32°02' W 080°54'0 0.0
2018-Aug-18 11:30N 32°02' W 080°54'0 0.0
2018-Aug-18 11:00N 32°02' W 080°54'0 0.0
2018-Aug-18 10:30N 32°02' W 080°54'0 0.0
2018-Aug-18 10:00N 32°02' W 080°54'0 0.0
2018-Aug-18 09:30N 32°02' W 080°54'1020.2
2018-Aug-18 09:00N 31°58' W 080°43'816.4
2018-Aug-18 08:30N 32°02' W 080°52'510.7
2018-Aug-18 08:00N 31°59' W 080°46'714.6
2018-Aug-18 07:31N 32°02' W 080°54'0 0.1
2018-Aug-18 07:00N 32°02' W 080°54'0 0.0
2018-Aug-18 06:30N 32°02' W 080°54'0 0.0
2018-Aug-18 06:00N 32°02' W 080°54'1115.8
2018-Aug-18 05:19N 31°58' W 080°43'617.8
2018-Aug-18 05:00N 32°01' W 080°48'510.8
2018-Aug-18 04:30N 32°02' W 080°54'0 0.0
2018-Aug-18 04:00N 32°02' W 080°54'612.1
2018-Aug-18 03:30N 32°00' W 080°47'612.0
2018-Aug-18 03:01N 32°02' W 080°54'2 4.1
2018-Aug-18 02:31N 32°02' W 080°52'5 9.2
2018-Aug-18 02:00N 31°60' W 080°47'5 9.2
2018-Aug-18 01:31N 32°02' W 080°52'5 9.6
2018-Aug-18 01:00N 31°60' W 080°47'2 3.6
2018-Aug-18 00:29N 31°59' W 080°45'816.2
2018-Aug-18 00:00N 32°02' W 080°53'1 1.6
2018-Aug-17 23:30N 32°02' W 080°54'816.3
2018-Aug-17 23:00N 31°59' W 080°45'1 1.5
2018-Aug-17 22:29N 31°58' W 080°46'0 0.9
2018-Aug-17 22:00N 31°59' W 080°46'1 1.5
2018-Aug-17 21:30N 31°58' W 080°46'5 9.9
2018-Aug-17 21:00N 31°57' W 080°40'1325.4
2018-Aug-17 20:30N 32°02' W 080°54'1632.2
2018-Aug-17 20:00N 31°56' W 080°36'1224.4
2018-Aug-17 19:30N 32°02' W 080°49'4 8.6
2018-Aug-17 19:00N 32°02' W 080°54'0 0.0
2018-Aug-17 18:30N 32°02' W 080°54'0 0.0
2018-Aug-17 18:00N 32°02' W 080°54'0 0.0
2018-Aug-17 17:30N 32°02' W 080°54'0 0.0
2018-Aug-17 17:00N 32°02' W 080°54'0 0.0
2018-Aug-17 16:30N 32°02' W 080°54'0 0.0
2018-Aug-17 16:00N 32°02' W 080°54'0 0.0
2018-Aug-17 15:30N 32°02' W 080°54'0 0.0
2018-Aug-17 14:59N 32°02' W 080°54'0 0.0
2018-Aug-17 14:00N 32°02' W 080°54'0 0.0
2018-Aug-17 13:30N 32°02' W 080°54'4 7.9
2018-Aug-17 13:00N 32°02' W 080°50'811.8
2018-Aug-17 12:20N 31°57' W 080°42'1030.1
2018-Aug-17 12:00N 32°02' W 080°52'2 3.2
2018-Aug-17 11:30N 32°02' W 080°54'1121.6
2018-Aug-17 11:00N 31°58' W 080°42'510.5
2018-Aug-17 10:30N 32°01' W 080°48'2 4.9
2018-Aug-17 10:00N 31°59' W 080°46'3 5.1
2018-Aug-17 09:30N 31°58' W 080°43'1 2.3
2018-Aug-17 09:00N 31°58' W 080°44'1 3.0
2018-Aug-17 08:30N 31°58' W 080°46'2 4.7
2018-Aug-17 08:00N 31°58' W 080°43'2 4.2
2018-Aug-17 07:26N 31°59' W 080°45'3 7.0
2018-Aug-17 06:59N 31°58' W 080°42'2 5.0
2018-Aug-17 06:30N 31°59' W 080°45'917.5
2018-Aug-17 06:00N 32°02' W 080°54'0 0.0
2018-Aug-17 05:31N 32°02' W 080°54'1319.2
2018-Aug-17 04:50N 31°57' W 080°40'823.8
2018-Aug-17 04:30N 32°01' W 080°48'0 0.3
2018-Aug-17 04:00N 32°01' W 080°48'510.6
2018-Aug-17 03:31N 32°02' W 080°54'1018.7
2018-Aug-17 02:58N 31°58' W 080°43'0 0.2
2018-Aug-17 02:28N 31°58' W 080°43'920.2
2018-Aug-17 02:00N 32°02' W 080°53'1 1.9
2018-Aug-17 01:29N 32°02' W 080°54'1424.0
2018-Aug-17 00:54N 31°57' W 080°39'614.1
2018-Aug-17 00:30N 31°59' W 080°45'816.3
2018-Aug-16 23:59N 32°02' W 080°54'0 0.0
2018-Aug-16 23:26N 32°02' W 080°54'0 0.0
2018-Aug-16 23:00N 32°02' W 080°54'0 0.0
2018-Aug-16 22:30N 32°02' W 080°54'0 0.0
2018-Aug-16 22:00N 32°02' W 080°54'0 0.0
2018-Aug-16 21:30N 32°02' W 080°54'0 0.0
2018-Aug-16 21:00N 32°02' W 080°54'0 0.0
2018-Aug-16 20:30N 32°02' W 080°54'0 0.0
2018-Aug-16 20:00N 32°02' W 080°54'0 0.0
2018-Aug-16 19:30N 32°02' W 080°54'0 0.0
2018-Aug-16 19:00N 32°02' W 080°54'0 0.0
2018-Aug-16 18:30N 32°02' W 080°54'0 0.0
2018-Aug-16 18:00N 32°02' W 080°54'0 0.0
2018-Aug-16 17:30N 32°02' W 080°54'0 0.0
2018-Aug-16 17:00N 32°02' W 080°54'0 0.0
2018-Aug-16 16:30N 32°02' W 080°54'0 0.0
2018-Aug-16 16:00N 32°02' W 080°54'0 0.0
2018-Aug-16 15:30N 32°02' W 080°54'0 0.0
2018-Aug-16 15:00N 32°02' W 080°54'0 0.0
2018-Aug-16 14:30N 32°02' W 080°54'0 0.0
2018-Aug-16 14:00N 32°02' W 080°54'0 0.0
2018-Aug-16 13:30N 32°02' W 080°54'0 0.0
2018-Aug-16 13:00N 32°02' W 080°54'0 0.0
2018-Aug-16 12:30N 32°02' W 080°54'0 0.0
2018-Aug-16 12:00N 32°02' W 080°54'4 8.5
2018-Aug-16 11:31N 32°02' W 080°49'1018.7
2018-Aug-16 10:59N 31°57' W 080°39'817.6
2018-Aug-16 10:31N 32°01' W 080°48'510.4
2018-Aug-16 10:01N 32°02' W 080°54'0 0.0
2018-Aug-16 09:30N 32°02' W 080°54'0 0.0
2018-Aug-16 09:00N 32°02' W 080°54'0 0.0
2018-Aug-16 08:30N 32°02' W 080°54'917.8
2018-Aug-16 08:00N 31°59' W 080°45'713.4
2018-Aug-16 07:30N 32°02' W 080°51'612.4
2018-Aug-16 07:00N 31°59' W 080°45'1 1.6
2018-Aug-16 06:29N 31°58' W 080°44'610.6
2018-Aug-16 05:58N 31°56' W 080°38'1022.3
2018-Aug-16 05:31N 32°01' W 080°49'2 3.2
2018-Aug-16 05:00N 31°60' W 080°47'2 3.7
2018-Aug-16 04:29N 31°59' W 080°45'1 1.2
2018-Aug-16 04:00N 31°59' W 080°45'1 1.1
2018-Aug-16 03:30N 31°59' W 080°46'5 9.0
2018-Aug-16 02:58N 31°57' W 080°40'4 9.0
2018-Aug-16 02:29N 31°59' W 080°45'1 1.4
2018-Aug-16 02:00N 31°59' W 080°46'611.5
2018-Aug-16 01:30N 32°02' W 080°52'714.8
2018-Aug-16 01:00N 31°58' W 080°44'815.4
2018-Aug-16 00:30N 32°02' W 080°52'2 3.3
2018-Aug-16 00:00N 32°02' W 080°54'915.4
2018-Aug-15 23:27N 31°59' W 080°45'613.4
2018-Aug-15 23:00N 32°02' W 080°50'3 6.3
2018-Aug-15 22:30N 32°02' W 080°54'0 0.0
2018-Aug-15 22:00N 32°02' W 080°54'0 0.0
2018-Aug-15 21:30N 32°02' W 080°54'0 0.0
2018-Aug-15 21:00N 32°02' W 080°54'0 0.0
2018-Aug-15 20:30N 32°02' W 080°54'0 0.0
2018-Aug-15 20:00N 32°02' W 080°54'0 0.0
2018-Aug-15 19:30N 32°02' W 080°54'0 0.0
2018-Aug-15 19:00N 32°02' W 080°54'0 0.0
2018-Aug-15 18:30N 32°02' W 080°54'0 0.0
2018-Aug-15 18:00N 32°02' W 080°54'1020.3
2018-Aug-15 17:30N 31°58' W 080°43'917.4
2018-Aug-15 17:00N 32°02' W 080°52'2 4.9
2018-Aug-15 16:30N 32°02' W 080°49'713.9
2018-Aug-15 16:00N 31°58' W 080°43'4 7.4
2018-Aug-15 15:30N 31°59' W 080°46'714.1
2018-Aug-15 15:00N 32°02' W 080°54'918.7
2018-Aug-15 14:30N 31°59' W 080°44'1 1.1
2018-Aug-15 14:00N 31°58' W 080°44'1020.1
2018-Aug-15 13:30N 32°02' W 080°54'612.5
2018-Aug-15 13:00N 31°60' W 080°47'710.8
2018-Aug-15 12:22N 31°57' W 080°40'822.8
2018-Aug-15 12:00N 32°01' W 080°48'510.2
2018-Aug-15 11:30N 32°02' W 080°54'0 0.0
2018-Aug-15 11:00N 32°02' W 080°54'0 0.0
2018-Aug-15 10:31N 32°02' W 080°54'0 0.0
2018-Aug-15 10:00N 32°02' W 080°54'0 0.0
2018-Aug-15 09:30N 32°02' W 080°54'0 0.0
2018-Aug-15 09:00N 32°02' W 080°54'0 0.0
2018-Aug-15 08:30N 32°02' W 080°54'0 0.0
2018-Aug-15 08:00N 32°02' W 080°54'0 0.0
2018-Aug-15 07:31N 32°02' W 080°54'1013.6
2018-Aug-15 06:48N 31°58' W 080°44'622.4
2018-Aug-15 06:30N 32°02' W 080°50'710.1
2018-Aug-15 05:47N 31°58' W 080°43'622.0
2018-Aug-15 05:31N 32°01' W 080°49'5 9.4
2018-Aug-15 05:00N 32°02' W 080°54'0 0.0
2018-Aug-15 04:30N 32°02' W 080°54'713.2
2018-Aug-15 04:00N 31°60' W 080°47'2 3.1
2018-Aug-15 03:29N 31°59' W 080°45'510.0
2018-Aug-15 03:00N 32°02' W 080°50'4 8.7
2018-Aug-15 02:30N 31°59' W 080°46'2 3.9
2018-Aug-15 02:00N 32°00' W 080°48'2 4.8
2018-Aug-15 01:30N 32°02' W 080°49'2 4.8
2018-Aug-15 01:00N 32°00' W 080°47'612.0
2018-Aug-15 00:31N 32°02' W 080°54'0 0.1
2018-Aug-15 00:00N 32°02' W 080°54'0 0.0
2018-Aug-14 23:30N 32°02' W 080°54'0 0.0
2018-Aug-14 23:00N 32°02' W 080°54'0 0.0
2018-Aug-14 22:30N 32°02' W 080°54'0 0.0
2018-Aug-14 22:00N 32°02' W 080°54'0 0.0
2018-Aug-14 21:31N 32°02' W 080°54'0 0.0
2018-Aug-14 21:00N 32°02' W 080°54'0 0.0
2018-Aug-14 20:30N 32°02' W 080°54'0 0.0
2018-Aug-14 20:00N 32°02' W 080°54'0 0.0
2018-Aug-14 19:30N 32°02' W 080°54'0 0.0
2018-Aug-14 19:00N 32°02' W 080°54'0 0.0
2018-Aug-14 18:28N 32°02' W 080°54'0 0.0
2018-Aug-14 18:00N 32°02' W 080°54'0 0.0
2018-Aug-14 17:30N 32°02' W 080°54'0 0.0
2018-Aug-14 17:00N 32°02' W 080°54'0 0.0
2018-Aug-14 16:30N 32°02' W 080°54'0 0.0
2018-Aug-14 16:00N 32°02' W 080°54'0 0.0
2018-Aug-14 15:30N 32°02' W 080°54'0 0.0
2018-Aug-14 15:00N 32°02' W 080°54'0 0.0
2018-Aug-14 14:30N 32°02' W 080°54'0 0.0
2018-Aug-14 14:00N 32°02' W 080°54'0 0.0
2018-Aug-14 13:30N 32°02' W 080°54'0 0.0
2018-Aug-14 13:00N 32°02' W 080°54'0 0.0
2018-Aug-14 12:29N 32°02' W 080°54'0 0.0
2018-Aug-14 11:59N 32°02' W 080°54'0 0.0
2018-Aug-14 11:30N 32°02' W 080°54'0 0.0
2018-Aug-14 11:00N 32°02' W 080°54'0 0.0
2018-Aug-14 10:30N 32°02' W 080°54'0 0.0
2018-Aug-14 10:00N 32°02' W 080°54'0 0.0
2018-Aug-14 09:29N 32°02' W 080°54'0 0.0
2018-Aug-14 09:00N 32°02' W 080°54'0 0.0
2018-Aug-14 08:30N 32°02' W 080°54'0 0.0
2018-Aug-14 07:59N 32°02' W 080°54'0 0.0
2018-Aug-14 07:28N 32°02' W 080°54'0 0.0
2018-Aug-14 07:00N 32°02' W 080°54'0 0.0
2018-Aug-14 06:30N 32°02' W 080°54'0 0.0
2018-Aug-14 05:59N 32°02' W 080°54'0 0.0
2018-Aug-14 05:30N 32°02' W 080°54'0 0.0
2018-Aug-14 05:00N 32°02' W 080°54'0 0.0
2018-Aug-14 04:30N 32°02' W 080°54'0 0.0
2018-Aug-14 04:00N 32°02' W 080°54'0 0.0
2018-Aug-14 03:29N 32°02' W 080°54'0 0.0
2018-Aug-14 03:00N 32°02' W 080°54'0 0.0
2018-Aug-14 02:30N 32°02' W 080°54'0 0.0
2018-Aug-14 02:00N 32°02' W 080°54'0 0.0
2018-Aug-14 01:30N 32°02' W 080°54'0 0.0
2018-Aug-14 01:00N 32°02' W 080°54'0 0.0
2018-Aug-14 00:30N 32°02' W 080°54'0 0.0
2018-Aug-14 00:00N 32°02' W 080°54'0 0.0
2018-Aug-13 23:30N 32°02' W 080°54'0 0.0
2018-Aug-13 23:00N 32°02' W 080°54'0 0.0
2018-Aug-13 22:30N 32°02' W 080°54'0 0.0
2018-Aug-13 22:00N 32°02' W 080°54'0 0.0
2018-Aug-13 21:30N 32°02' W 080°54'0 0.0
2018-Aug-13 21:00N 32°02' W 080°54'0 0.0
2018-Aug-13 20:30N 32°02' W 080°54'0 0.0
2018-Aug-13 20:00N 32°02' W 080°54'0 0.0
2018-Aug-13 19:30N 32°02' W 080°54'0 0.0
2018-Aug-13 19:00N 32°02' W 080°54'0 0.0
2018-Aug-13 18:30N 32°02' W 080°54'0 0.0
2018-Aug-13 18:00N 32°02' W 080°54'0 0.0
2018-Aug-13 17:28N 32°02' W 080°54'0 0.0
2018-Aug-13 16:59N 32°02' W 080°54'0 0.0
2018-Aug-13 16:30N 32°02' W 080°54'0 0.0
2018-Aug-13 16:00N 32°02' W 080°54'0 0.0
2018-Aug-13 15:30N 32°02' W 080°54'0 0.0
2018-Aug-13 15:00N 32°02' W 080°54'0 0.0
2018-Aug-13 14:29N 32°02' W 080°54'0 0.0
2018-Aug-13 14:00N 32°02' W 080°54'0 0.0
2018-Aug-13 13:30N 32°02' W 080°54'0 0.0
2018-Aug-13 13:00N 32°02' W 080°54'0 0.0
2018-Aug-13 12:30N 32°02' W 080°54'0 0.0
2018-Aug-13 12:00N 32°02' W 080°54'0 0.0
2018-Aug-13 11:30N 32°02' W 080°54'0 0.0
2018-Aug-13 11:00N 32°02' W 080°54'0 0.0
2018-Aug-13 10:30N 32°02' W 080°54'0 0.0
2018-Aug-13 10:00N 32°02' W 080°54'0 0.0
2018-Aug-13 09:30N 32°02' W 080°54'510.2
2018-Aug-13 09:00N 32°01' W 080°48'5 9.7
2018-Aug-13 08:30N 31°58' W 080°44'611.6
2018-Aug-13 08:00N 32°02' W 080°49'4 7.5
2018-Aug-13 07:30N 31°59' W 080°46'1 2.6
2018-Aug-13 07:00N 31°60' W 080°47'1 2.3
2018-Aug-13 06:29N 31°59' W 080°46'612.0
2018-Aug-13 06:00N 32°02' W 080°52'3 5.5
2018-Aug-13 05:30N 32°01' W 080°49'4 5.8
2018-Aug-13 04:47N 31°59' W 080°45'724.0
2018-Aug-13 04:30N 32°02' W 080°52'1018.0
2018-Aug-13 03:58N 31°57' W 080°42'1 1.2
2018-Aug-13 03:30N 31°58' W 080°43'713.6
2018-Aug-13 03:00N 32°02' W 080°49'5 9.2
2018-Aug-13 02:30N 32°02' W 080°54'0 0.0
2018-Aug-13 02:00N 32°02' W 080°54'4 7.3
2018-Aug-13 01:30N 32°02' W 080°50'5 9.3
2018-Aug-13 01:00N 31°59' W 080°46'2 2.4
2018-Aug-13 00:19N 31°58' W 080°44'721.3
2018-Aug-13 00:00N 32°02' W 080°50'3 6.8
2018-Aug-12 23:30N 32°02' W 080°54'0 0.0
2018-Aug-12 23:00N 32°02' W 080°54'0 0.0
2018-Aug-12 22:30N 32°02' W 080°54'0 0.0
2018-Aug-12 22:00N 32°02' W 080°54'0 0.0
2018-Aug-12 21:30N 32°02' W 080°54'0 0.0
2018-Aug-12 21:00N 32°02' W 080°54'0 0.0
2018-Aug-12 20:30N 32°02' W 080°54'1 2.3
2018-Aug-12 20:00N 32°02' W 080°53'1019.1
2018-Aug-12 19:30N 31°58' W 080°43'612.6
2018-Aug-12 19:00N 32°01' W 080°49'5 9.4
2018-Aug-12 18:30N 32°02' W 080°54'0 0.0
2018-Aug-12 18:00N 32°02' W 080°54'0 0.0
2018-Aug-12 17:30N 32°02' W 080°54'0 0.0
2018-Aug-12 17:00N 32°02' W 080°54'0 0.0
2018-Aug-12 16:30N 32°02' W 080°54'0 0.0
2018-Aug-12 16:00N 32°02' W 080°54'0 0.0
2018-Aug-12 15:30N 32°02' W 080°54'0 0.0
2018-Aug-12 15:00N 32°02' W 080°54'0 0.0
2018-Aug-12 14:30N 32°02' W 080°54'0 0.0
2018-Aug-12 14:00N 32°02' W 080°54'0 0.0
2018-Aug-12 13:30N 32°02' W 080°54'4 7.5
2018-Aug-12 13:00N 32°02' W 080°50'816.5
2018-Aug-12 12:30N 31°57' W 080°41'1122.2
2018-Aug-12 12:00N 32°02' W 080°53'1 2.0
2018-Aug-12 11:30N 32°02' W 080°54'0 0.0
2018-Aug-12 11:00N 32°02' W 080°54'0 0.0
2018-Aug-12 10:29N 32°02' W 080°54'715.2
2018-Aug-12 10:00N 31°59' W 080°46'610.9
2018-Aug-12 09:29N 31°57' W 080°40'2 4.4
2018-Aug-12 09:00N 31°57' W 080°43'510.6
2018-Aug-12 08:30N 32°00' W 080°48'611.6
2018-Aug-12 08:00N 32°02' W 080°54'3 6.3
2018-Aug-12 07:31N 32°02' W 080°50'510.8
2018-Aug-12 07:00N 31°59' W 080°46'1 1.4
2018-Aug-12 06:30N 31°59' W 080°46'5 8.8
2018-Aug-12 05:56N 31°57' W 080°41'818.2
2018-Aug-12 05:30N 32°01' W 080°49'5 9.8
2018-Aug-12 05:01N 32°02' W 080°54'0 0.0
2018-Aug-12 04:30N 32°02' W 080°54'0 0.0
2018-Aug-12 04:00N 32°02' W 080°54'1114.6
2018-Aug-12 03:14N 31°58' W 080°42'520.9
2018-Aug-12 03:00N 31°60' W 080°47'611.8
2018-Aug-12 02:30N 32°02' W 080°54'611.3
2018-Aug-12 02:00N 32°00' W 080°47'612.3
2018-Aug-12 01:30N 32°02' W 080°54'3 5.3
2018-Aug-12 01:00N 32°02' W 080°51'4 7.9
2018-Aug-12 00:30N 31°60' W 080°47'510.2
2018-Aug-12 00:00N 32°02' W 080°53'1 2.6
2018-Aug-11 23:30N 32°02' W 080°54'0 0.0
2018-Aug-11 23:00N 32°02' W 080°54'0 0.0
2018-Aug-11 22:30N 32°02' W 080°54'0 0.0
2018-Aug-11 22:00N 32°02' W 080°54'0 0.0
2018-Aug-11 21:29N 32°02' W 080°54'0 0.0
2018-Aug-11 21:00N 32°02' W 080°54'0 0.0
2018-Aug-11 20:30N 32°02' W 080°54'0 0.0
2018-Aug-11 20:00N 32°02' W 080°54'1020.2
2018-Aug-11 19:30N 31°58' W 080°43'4 8.3
2018-Aug-11 19:00N 32°00' W 080°48'2 3.1
2018-Aug-11 18:30N 31°59' W 080°46'1 2.1
2018-Aug-11 18:00N 31°59' W 080°45'1 1.1
2018-Aug-11 17:24N 31°59' W 080°46'614.3
2018-Aug-11 17:01N 32°02' W 080°52'2 4.3
2018-Aug-11 16:30N 32°02' W 080°54'0 0.0
2018-Aug-11 16:00N 32°02' W 080°54'4 8.1
2018-Aug-11 15:30N 32°02' W 080°49'611.1
2018-Aug-11 15:00N 31°58' W 080°44'3 5.0
2018-Aug-11 14:30N 31°60' W 080°47'612.7
2018-Aug-11 14:00N 32°02' W 080°54'0 0.0
2018-Aug-11 13:30N 32°02' W 080°54'0 0.0
2018-Aug-11 13:00N 32°02' W 080°54'0 0.0
2018-Aug-11 12:30N 32°02' W 080°54'0 0.0
2018-Aug-11 12:00N 32°02' W 080°54'0 0.0
2018-Aug-11 11:30N 32°02' W 080°54'1423.0
2018-Aug-11 10:55N 31°56' W 080°40'4 9.5
2018-Aug-11 10:30N 31°58' W 080°44'1019.2
2018-Aug-11 10:00N 32°02' W 080°54'0 0.0
2018-Aug-11 09:30N 32°02' W 080°54'0 0.0
2018-Aug-11 09:00N 32°02' W 080°54'0 0.0
2018-Aug-11 08:30N 32°02' W 080°54'1222.7
2018-Aug-11 07:58N 31°57' W 080°41'1 2.6
2018-Aug-11 07:28N 31°58' W 080°42'1 2.7
2018-Aug-11 07:00N 31°58' W 080°43'1020.2
2018-Aug-11 06:30N 32°02' W 080°54'1218.1
2018-Aug-11 05:51N 31°57' W 080°42'823.8
2018-Aug-11 05:30N 32°02' W 080°50'612.8
2018-Aug-11 05:00N 31°59' W 080°43'3 5.2
2018-Aug-11 04:30N 31°59' W 080°46'  

Dump ship's entire track history